createdAt,value
2023-10-06T00:04:42.867Z,10.82
2023-10-06T00:09:45.341Z,9.73
2023-10-06T00:14:50.343Z,9.20
2023-10-06T00:19:53.538Z,9.50
2023-10-06T00:25:01.492Z,9.23
2023-10-06T00:30:13.183Z,10.40
2023-10-06T00:35:24.222Z,9.60
2023-10-06T00:40:26.839Z,10.63
2023-10-06T00:45:32.096Z,10.20
2023-10-06T00:50:35.159Z,10.10
2023-10-06T00:55:38.766Z,9.98
2023-10-06T01:00:41.226Z,9.73
2023-10-06T01:05:47.292Z,10.13
2023-10-06T01:10:52.765Z,9.35
2023-10-06T01:15:57.927Z,9.52
2023-10-06T01:21:10.901Z,10.13
2023-10-06T01:26:14.707Z,9.95
2023-10-06T01:31:20.737Z,10.52
2023-10-06T01:36:24.989Z,10.88
2023-10-06T01:41:28.109Z,10.13
2023-10-06T01:46:30.646Z,10.93
2023-10-06T01:51:37.273Z,10.45
2023-10-06T01:56:43.119Z,10.02
2023-10-06T02:01:45.439Z,9.98
2023-10-06T02:06:49.516Z,10.60
2023-10-06T02:11:51.730Z,10.35
2023-10-06T02:16:57.044Z,9.98
2023-10-06T02:21:59.765Z,10.15
2023-10-06T02:27:03.037Z,10.18
2023-10-06T02:32:08.908Z,9.68
2023-10-06T02:37:11.938Z,9.55
2023-10-06T02:42:15.913Z,9.82
2023-10-06T02:47:19.270Z,10.00
2023-10-06T02:52:24.148Z,9.65
2023-10-06T02:57:27.178Z,9.50
2023-10-06T03:02:29.636Z,9.27
2023-10-06T03:07:32.389Z,9.00
2023-10-06T03:12:34.809Z,10.10
2023-10-06T03:17:37.175Z,10.30
2023-10-06T03:22:40.179Z,10.05
2023-10-06T03:27:43.038Z,11.30
2023-10-06T03:32:50.724Z,10.98
2023-10-06T03:37:53.856Z,10.88
2023-10-06T03:43:06.180Z,11.10
2023-10-06T03:48:12.197Z,11.60
2023-10-06T03:53:16.503Z,10.57
2023-10-06T03:58:19.812Z,10.20
2023-10-06T04:03:23.134Z,11.20
2023-10-06T04:08:25.417Z,10.07
2023-10-06T04:13:27.918Z,11.00
2023-10-06T04:18:34.143Z,9.52
2023-10-06T04:23:42.921Z,10.50
2023-10-06T04:28:49.540Z,10.85
2023-10-06T04:33:52.670Z,11.18
2023-10-06T04:38:56.680Z,10.60
2023-10-06T04:44:03.723Z,10.18
2023-10-06T04:49:06.140Z,10.85
2023-10-06T04:54:09.890Z,10.73
2023-10-06T04:59:13.089Z,11.02
2023-10-06T05:04:15.389Z,12.75
2023-10-06T05:09:19.458Z,11.18
2023-10-06T05:14:21.796Z,10.40
2023-10-06T05:19:24.062Z,10.45
2023-10-06T05:24:26.250Z,10.75
2023-10-06T05:29:28.974Z,10.57
2023-10-06T05:34:31.345Z,9.70
2023-10-06T05:39:35.085Z,9.70
2023-10-06T05:44:41.557Z,8.98
2023-10-06T05:49:49.358Z,8.35
2023-10-06T05:54:51.585Z,8.93
2023-10-06T05:59:54.894Z,8.93
2023-10-06T06:04:59.510Z,8.90
2023-10-06T06:10:05.569Z,8.07
2023-10-06T06:15:09.532Z,7.35
2023-10-06T06:20:18.526Z,8.43
2023-10-06T06:25:23.066Z,8.27
2023-10-06T06:30:25.835Z,8.20
2023-10-06T06:35:28.044Z,8.88
2023-10-06T06:40:30.300Z,8.85
2023-10-06T06:45:37.680Z,9.25
2023-10-06T06:50:45.659Z,7.88
2023-10-06T06:55:47.944Z,7.80
2023-10-06T07:00:50.418Z,8.25
2023-10-06T07:05:52.722Z,8.00
2023-10-06T07:10:54.913Z,6.70
2023-10-06T07:15:57.169Z,5.85
2023-10-06T07:20:59.937Z,5.05
2023-10-06T07:26:02.430Z,4.85
2023-10-06T07:31:10.069Z,4.32
2023-10-06T07:36:15.734Z,4.60
2023-10-06T07:41:18.860Z,4.05
2023-10-06T07:46:21.122Z,3.40
2023-10-06T07:51:23.519Z,3.50
2023-10-06T07:56:26.425Z,2.30
2023-10-06T08:01:29.236Z,3.45
2023-10-06T08:06:33.493Z,3.00
2023-10-06T08:11:35.691Z,3.65
2023-10-06T08:16:38.711Z,3.35
2023-10-06T08:21:42.691Z,3.08
2023-10-06T08:26:45.152Z,2.75
2023-10-06T08:31:48.102Z,2.42
2023-10-06T08:36:50.401Z,2.20
2023-10-06T08:41:54.784Z,2.17
2023-10-06T08:47:02.179Z,2.42
2023-10-06T08:52:26.569Z,1.73
2023-10-06T08:57:32.688Z,1.67
2023-10-06T09:02:34.920Z,2.15
2023-10-06T09:07:37.354Z,2.53
2023-10-06T09:12:39.578Z,2.00
2023-10-06T09:17:42.234Z,2.05
2023-10-06T09:22:49.263Z,1.90
2023-10-06T09:28:03.388Z,1.40
2023-10-06T09:33:09.980Z,1.55
2023-10-06T09:38:15.302Z,1.58
2023-10-06T09:43:20.340Z,1.70
2023-10-06T09:48:35.459Z,2.13
2023-10-06T09:53:41.632Z,1.77
2023-10-06T09:58:46.586Z,1.70
2023-10-06T10:03:49.892Z,2.17
2023-10-06T10:08:56.342Z,1.60
2023-10-06T10:19:09.356Z,2.15
2023-10-06T10:24:50.110Z,1.88
2023-10-06T10:34:58.300Z,2.28
2023-10-06T10:40:01.047Z,2.13
2023-10-06T10:45:24.372Z,2.33
2023-10-06T10:50:50.026Z,1.92
2023-10-06T10:55:52.413Z,1.92
2023-10-06T11:01:19.188Z,2.08
2023-10-06T11:06:42.002Z,1.88
2023-10-06T11:11:44.711Z,1.73
2023-10-06T11:16:48.228Z,2.13
2023-10-06T11:21:50.568Z,2.05
2023-10-06T11:26:52.823Z,2.13
2023-10-06T11:31:55.208Z,2.17
2023-10-06T11:37:00.760Z,2.17
2023-10-06T11:42:21.699Z,2.35
2023-10-06T11:47:30.288Z,2.47
2023-10-06T11:52:32.904Z,2.88
2023-10-06T11:57:47.723Z,2.17
2023-10-06T12:02:51.807Z,2.63
2023-10-06T12:07:54.389Z,2.83
2023-10-06T12:12:56.742Z,2.90
2023-10-06T12:17:59.058Z,2.95
2023-10-06T12:23:01.360Z,2.80
2023-10-06T12:28:03.947Z,2.25
2023-10-06T12:33:06.234Z,3.78
2023-10-06T12:38:08.502Z,4.95
2023-10-06T12:43:10.733Z,4.93
2023-10-06T12:48:13.159Z,3.75
2023-10-06T12:53:15.488Z,4.30
2023-10-06T12:58:18.074Z,5.28
2023-10-06T13:03:21.096Z,4.93
2023-10-06T13:08:26.527Z,2.85
2023-10-06T13:13:28.772Z,3.00
2023-10-06T13:18:32.215Z,3.50
2023-10-06T13:23:34.417Z,3.45
2023-10-06T13:28:37.780Z,3.53
2023-10-06T13:33:41.531Z,3.30
2023-10-06T13:38:44.220Z,3.00
2023-10-06T13:43:47.626Z,4.72
2023-10-06T13:48:50.388Z,3.47
2023-10-06T13:53:52.957Z,4.68
2023-10-06T13:58:55.661Z,4.97
2023-10-06T14:03:58.697Z,5.05
2023-10-06T14:09:01.265Z,4.88
2023-10-06T14:14:24.512Z,4.80
2023-10-06T14:19:27.161Z,5.13
2023-10-06T14:24:36.133Z,4.90
2023-10-06T14:29:38.950Z,5.20
2023-10-06T14:35:14.116Z,6.22
2023-10-06T14:40:35.519Z,4.93
2023-10-06T14:45:56.500Z,4.97
2023-10-06T14:51:00.072Z,4.82
2023-10-06T14:56:03.717Z,6.30
2023-10-06T15:01:13.581Z,8.20
2023-10-06T15:06:16.522Z,6.88
2023-10-06T15:11:20.614Z,5.95
2023-10-06T15:16:23.693Z,5.18
2023-10-06T15:21:26.311Z,5.18
2023-10-06T15:26:28.983Z,5.03
2023-10-06T15:31:31.697Z,5.97
2023-10-06T15:36:34.356Z,6.10
2023-10-06T15:41:39.862Z,4.10
2023-10-06T15:46:43.370Z,4.78
2023-10-06T15:52:01.668Z,4.45
2023-10-06T15:57:05.877Z,4.03
2023-10-06T16:02:09.272Z,3.45
2023-10-06T16:07:13.220Z,4.32
2023-10-06T16:12:17.864Z,4.65
2023-10-06T16:17:21.950Z,5.20
2023-10-06T16:22:26.113Z,5.32
2023-10-06T16:27:31.997Z,5.65
2023-10-06T16:32:34.902Z,6.28
2023-10-06T16:37:37.841Z,5.28
2023-10-06T16:42:42.683Z,5.85
2023-10-06T16:47:49.524Z,5.45
2023-10-06T16:52:58.784Z,4.85
2023-10-06T16:58:02.829Z,5.82
2023-10-06T17:03:08.034Z,5.82
2023-10-06T17:08:10.844Z,5.85
2023-10-06T17:13:24.128Z,6.70
2023-10-06T17:18:27.694Z,6.43
2023-10-06T17:23:30.965Z,6.68
2023-10-06T17:28:33.599Z,6.45
2023-10-06T17:33:38.391Z,6.55
2023-10-06T17:38:41.281Z,6.78
2023-10-06T17:43:57.005Z,6.10
2023-10-06T17:48:59.686Z,6.28
2023-10-06T17:54:02.196Z,5.90
2023-10-06T17:59:04.910Z,6.35
2023-10-06T18:04:07.897Z,6.47
2023-10-06T18:09:12.086Z,6.70
2023-10-06T18:14:14.933Z,6.82
2023-10-06T18:19:17.659Z,7.47
2023-10-06T18:24:20.513Z,6.45
2023-10-06T18:29:24.552Z,7.60
2023-10-06T18:34:27.106Z,6.55
2023-10-06T18:39:31.098Z,6.20
2023-10-06T18:44:33.473Z,6.97
2023-10-06T18:49:36.051Z,7.15
2023-10-06T18:54:38.529Z,7.75
2023-10-06T18:59:41.009Z,6.45
2023-10-06T19:04:46.742Z,6.85
2023-10-06T19:09:49.772Z,7.03
2023-10-06T19:14:52.398Z,6.95
2023-10-06T19:19:54.734Z,6.30
2023-10-06T19:24:57.264Z,6.07
2023-10-06T19:29:59.542Z,6.07
2023-10-06T19:35:01.861Z,7.22
2023-10-06T19:40:14.104Z,6.47
2023-10-06T19:45:16.646Z,5.57
2023-10-06T19:50:20.177Z,4.40
2023-10-06T19:55:22.724Z,1.67
2023-10-06T20:00:27.935Z,2.90
2023-10-06T20:05:30.164Z,2.45
2023-10-06T20:10:32.769Z,1.73
2023-10-06T20:15:35.806Z,2.83
2023-10-06T20:20:38.046Z,2.60
2023-10-06T20:25:40.286Z,2.92
2023-10-06T20:30:42.821Z,2.50
2023-10-06T20:35:45.110Z,3.28
2023-10-06T20:40:47.842Z,3.70
2023-10-06T20:45:50.172Z,3.92
2023-10-06T20:50:52.452Z,5.55
2023-10-06T20:56:02.715Z,2.70
2023-10-06T21:01:07.001Z,3.20
2023-10-06T21:06:09.526Z,3.08
2023-10-06T21:11:14.230Z,2.72
2023-10-06T21:16:16.528Z,2.70
2023-10-06T21:21:18.922Z,3.50
2023-10-06T21:26:23.326Z,3.75
2023-10-06T21:31:25.777Z,3.20
2023-10-06T21:36:28.009Z,3.13
2023-10-06T21:41:30.240Z,3.47
2023-10-06T21:46:33.191Z,3.13
2023-10-06T21:51:35.359Z,3.17
2023-10-06T21:56:38.306Z,2.38
2023-10-06T22:01:40.727Z,2.42
2023-10-06T22:06:43.467Z,2.72
2023-10-06T22:11:49.106Z,3.00
2023-10-06T22:16:51.786Z,3.20
2023-10-06T22:21:54.048Z,3.35
2023-10-06T22:26:58.835Z,3.03
2023-10-06T22:32:01.311Z,2.80
2023-10-06T22:37:09.558Z,2.78
2023-10-06T22:42:22.664Z,3.83
2023-10-06T22:47:26.859Z,3.42
2023-10-06T22:52:29.203Z,3.25
2023-10-06T22:57:31.450Z,3.17
2023-10-06T23:02:33.741Z,3.03
2023-10-06T23:07:36.019Z,2.92
2023-10-06T23:12:39.248Z,3.13
2023-10-06T23:17:46.658Z,3.25
2023-10-06T23:22:54.709Z,3.17
2023-10-06T23:27:57.177Z,3.58
2023-10-06T23:33:00.387Z,3.05
2023-10-06T23:38:08.057Z,3.22
2023-10-06T23:43:10.453Z,3.00
2023-10-06T23:48:13.583Z,3.15
2023-10-06T23:53:18.238Z,3.03
2023-10-06T23:58:20.512Z,2.60
